Terminal Aerodrome Forecast
Issued by NWS

Home | Current Version | Previous Version | Text Only | Print | Product List | Glossary On
Versions: 1 2 3 4 5 6 7 8 9 10 11 12 13 14 15 16 17 18 19 20 21 22 23 24 25 26
121
FTUS41 KRLX 290856 AAA
TAFCKB
TAF AMD
KCKB 290856Z 2909/3006 23005KT P6SM SCT025
      TEMPO 2909/2913 BKN025
     FM291300 25005KT P6SM BKN025
      TEMPO 2913/2916 SCT035
     FM291600 26005KT P6SM BKN050
     FM291700 26006KT P6SM SCT050=

USA.gov is the U.S. government's official web portal to all federal, state and local government web resources and services.